sensor_id;sensor_type;location;lat;lon;timestamp;pressure;altitude;pressure_sealevel;temperature;humidity
7075;BME280;3578;51.568;6.932;2023-05-03T00:01:07;52606.81;;;-144.14;94.80
7075;BME280;3578;51.568;6.932;2023-05-03T00:03:34;52578.75;;;-144.14;94.85
7075;BME280;3578;51.568;6.932;2023-05-03T00:06:09;52594.78;;;-144.14;95.00
7075;BME280;3578;51.568;6.932;2023-05-03T00:08:37;52512.66;;;-144.14;95.24
7075;BME280;3578;51.568;6.932;2023-05-03T00:11:05;52528.69;;;-144.14;95.09
7075;BME280;3578;51.568;6.932;2023-05-03T00:13:32;52552.72;;;-144.14;95.18
7075;BME280;3578;51.568;6.932;2023-05-03T00:15:59;52528.69;;;-144.14;95.41
7075;BME280;3578;51.568;6.932;2023-05-03T00:18:27;52486.59;;;-144.14;95.73
7075;BME280;3578;51.568;6.932;2023-05-03T00:20:55;52484.59;;;-144.14;95.93
7075;BME280;3578;51.568;6.932;2023-05-03T00:23:22;52472.56;;;-144.14;95.75
7075;BME280;3578;51.568;6.932;2023-05-03T00:25:52;52454.53;;;-144.14;95.82
7075;BME280;3578;51.568;6.932;2023-05-03T00:28:21;52470.56;;;-144.14;95.67
7075;BME280;3578;51.568;6.932;2023-05-03T00:30:48;52370.38;;;-144.14;96.90
7075;BME280;3578;51.568;6.932;2023-05-03T00:33:15;52318.28;;;-144.14;97.27
7075;BME280;3578;51.568;6.932;2023-05-03T00:35:42;52272.22;;;-144.14;97.30
7075;BME280;3578;51.568;6.932;2023-05-03T00:38:09;52260.19;;;-144.14;96.82
7075;BME280;3578;51.568;6.932;2023-05-03T00:40:37;52208.09;;;-144.14;96.95
7075;BME280;3578;51.568;6.932;2023-05-03T00:43:04;52202.09;;;-144.14;97.44
7075;BME280;3578;51.568;6.932;2023-05-03T00:45:33;52164.03;;;-144.14;97.41
7075;BME280;3578;51.568;6.932;2023-05-03T00:48:00;52123.97;;;-144.14;97.40
7075;BME280;3578;51.568;6.932;2023-05-03T00:50:28;52083.88;;;-144.14;97.75
7075;BME280;3578;51.568;6.932;2023-05-03T00:52:55;52033.81;;;-144.14;97.84
7075;BME280;3578;51.568;6.932;2023-05-03T00:55:23;52013.78;;;-144.14;98.12
7075;BME280;3578;51.568;6.932;2023-05-03T00:57:51;51955.69;;;-144.14;98.23
7075;BME280;3578;51.568;6.932;2023-05-03T01:00:19;51903.59;;;-144.14;98.18
7075;BME280;3578;51.568;6.932;2023-05-03T01:02:48;51909.59;;;-144.14;98.21
7075;BME280;3578;51.568;6.932;2023-05-03T01:05:15;51847.50;;;-144.14;98.58
7075;BME280;3578;51.568;6.932;2023-05-03T01:07:55;51715.28;;;-144.14;99.06
7075;BME280;3578;51.568;6.932;2023-05-03T01:10:34;51719.28;;;-144.14;98.59
7075;BME280;3578;51.568;6.932;2023-05-03T01:13:10;51641.16;;;-144.14;99.14
7075;BME280;3578;51.568;6.932;2023-05-03T01:15:49;51583.06;;;-144.14;99.34
7075;BME280;3578;51.568;6.932;2023-05-03T01:18:29;51430.84;;;-144.14;99.94
7075;BME280;3578;51.568;6.932;2023-05-03T01:20:59;51234.56;;;-144.14;100.00
7075;BME280;3578;51.568;6.932;2023-05-03T01:23:35;51186.47;;;-144.14;100.00
7075;BME280;3578;51.568;6.932;2023-05-03T01:26:18;51216.53;;;-144.14;100.00
7075;BME280;3578;51.568;6.932;2023-05-03T01:28:47;51126.41;;;-144.14;100.00
7075;BME280;3578;51.568;6.932;2023-05-03T01:31:20;51046.28;;;-144.14;100.00
7075;BME280;3578;51.568;6.932;2023-05-03T01:33:59;51046.28;;;-144.14;100.00
7075;BME280;3578;51.568;6.932;2023-05-03T01:36:30;50956.16;;;-144.14;100.00
7075;BME280;3578;51.568;6.932;2023-05-03T01:39:01;50902.09;;;-144.14;100.00
7075;BME280;3578;51.568;6.932;2023-05-03T01:41:33;50982.19;;;-144.14;100.00
7075;BME280;3578;51.568;6.932;2023-05-03T01:44:02;51002.22;;;-144.14;99.93
7075;BME280;3578;51.568;6.932;2023-05-03T01:46:29;51084.34;;;-144.14;99.53
7075;BME280;3578;51.568;6.932;2023-05-03T01:48:56;51034.28;;;-144.14;99.76
7075;BME280;3578;51.568;6.932;2023-05-03T01:51:23;51070.31;;;-144.14;99.58
7075;BME280;3578;51.568;6.932;2023-05-03T01:53:50;51078.34;;;-144.14;99.46
7075;BME280;3578;51.568;6.932;2023-05-03T01:56:17;51112.38;;;-144.14;99.28
7075;BME280;3578;51.568;6.932;2023-05-03T01:58:45;51090.34;;;-144.14;99.28
7075;BME280;3578;51.568;6.932;2023-05-03T02:01:12;51142.41;;;-144.14;99.23
7075;BME280;3578;51.568;6.932;2023-05-03T02:03:40;51144.44;;;-144.14;99.17
7075;BME280;3578;51.568;6.932;2023-05-03T02:06:07;51168.47;;;-144.14;98.97
7075;BME280;3578;51.568;6.932;2023-05-03T02:08:34;51090.34;;;-144.14;99.42
7075;BME280;3578;51.568;6.932;2023-05-03T02:11:01;51086.34;;;-144.14;99.67
7075;BME280;3578;51.568;6.932;2023-05-03T02:13:28;51050.28;;;-144.14;99.61
7075;BME280;3578;51.568;6.932;2023-05-03T02:15:56;51084.34;;;-144.14;99.34
7075;BME280;3578;51.568;6.932;2023-05-03T02:18:23;51074.31;;;-144.14;99.36
7075;BME280;3578;51.568;6.932;2023-05-03T02:20:50;51098.34;;;-144.14;99.19
7075;BME280;3578;51.568;6.932;2023-05-03T02:23:17;51034.28;;;-144.14;99.31
7075;BME280;3578;51.568;6.932;2023-05-03T02:25:44;51070.31;;;-144.14;99.26
7075;BME280;3578;51.568;6.932;2023-05-03T02:28:11;51062.31;;;-144.14;99.21
7075;BME280;3578;51.568;6.932;2023-05-03T02:30:38;51034.28;;;-144.14;99.25
7075;BME280;3578;51.568;6.932;2023-05-03T02:33:07;51014.25;;;-144.14;99.76
7075;BME280;3578;51.568;6.932;2023-05-03T02:35:34;50954.16;;;-144.14;99.63
7075;BME280;3578;51.568;6.932;2023-05-03T02:38:01;51006.22;;;-144.14;99.31
7075;BME280;3578;51.568;6.932;2023-05-03T02:40:28;51050.28;;;-144.14;99.12
7075;BME280;3578;51.568;6.932;2023-05-03T02:42:54;50994.22;;;-144.14;99.21
7075;BME280;3578;51.568;6.932;2023-05-03T02:45:21;50962.16;;;-144.14;99.70
7075;BME280;3578;51.568;6.932;2023-05-03T02:47:49;50828.00;;;-144.14;100.00
7075;BME280;3578;51.568;6.932;2023-05-03T02:50:17;50711.84;;;-144.14;100.00
7075;BME280;3578;51.568;6.932;2023-05-03T02:52:44;50587.69;;;-144.14;100.00
7075;BME280;3578;51.568;6.932;2023-05-03T02:55:12;50611.72;;;-144.14;100.00
7075;BME280;3578;51.568;6.932;2023-05-03T02:57:38;50627.72;;;-144.14;100.00
7075;BME280;3578;51.568;6.932;2023-05-03T03:00:07;50571.66;;;-144.14;100.00
7075;BME280;3578;51.568;6.932;2023-05-03T03:02:35;50607.69;;;-144.14;100.00
7075;BME280;3578;51.568;6.932;2023-05-03T03:05:02;50659.78;;;-144.14;100.00
7075;BME280;3578;51.568;6.932;2023-05-03T03:07:31;50605.69;;;-144.14;100.00
7075;BME280;3578;51.568;6.932;2023-05-03T03:09:58;50571.66;;;-144.14;100.00
7075;BME280;3578;51.568;6.932;2023-05-03T03:12:25;50573.66;;;-144.14;100.00
7075;BME280;3578;51.568;6.932;2023-05-03T03:14:53;50585.69;;;-144.14;100.00
7075;BME280;3578;51.568;6.932;2023-05-03T03:17:20;50579.66;;;-144.14;100.00
7075;BME280;3578;51.568;6.932;2023-05-03T03:19:47;50529.59;;;-144.14;100.00
7075;BME280;3578;51.568;6.932;2023-05-03T03:22:14;50461.53;;;-144.14;100.00
7075;BME280;3578;51.568;6.932;2023-05-03T03:24:43;50409.47;;;-144.14;100.00
7075;BME280;3578;51.568;6.932;2023-05-03T03:27:10;50381.44;;;-144.14;100.00
7075;BME280;3578;51.568;6.932;2023-05-03T03:29:37;50433.50;;;-144.14;100.00
7075;BME280;3578;51.568;6.932;2023-05-03T03:32:05;50415.47;;;-144.14;100.00
7075;BME280;3578;51.568;6.932;2023-05-03T03:34:32;50393.44;;;-144.14;100.00
7075;BME280;3578;51.568;6.932;2023-05-03T03:36:59;50457.53;;;-144.14;100.00
7075;BME280;3578;51.568;6.932;2023-05-03T03:39:26;50453.50;;;-144.14;100.00
7075;BME280;3578;51.568;6.932;2023-05-03T03:41:54;50449.50;;;-144.14;100.00
7075;BME280;3578;51.568;6.932;2023-05-03T03:44:21;50481.53;;;-144.14;100.00
7075;BME280;3578;51.568;6.932;2023-05-03T03:46:49;50455.50;;;-144.14;100.00
7075;BME280;3578;51.568;6.932;2023-05-03T03:49:15;50425.47;;;-144.14;100.00
7075;BME280;3578;51.568;6.932;2023-05-03T03:51:43;50427.47;;;-144.14;100.00
7075;BME280;3578;51.568;6.932;2023-05-03T03:54:10;50397.44;;;-144.14;100.00
7075;BME280;3578;51.568;6.932;2023-05-03T03:56:37;50421.47;;;-144.14;100.00
7075;BME280;3578;51.568;6.932;2023-05-03T03:59:05;50431.50;;;-144.14;100.00
7075;BME280;3578;51.568;6.932;2023-05-03T04:01:32;50381.44;;;-144.14;100.00
7075;BME280;3578;51.568;6.932;2023-05-03T04:03:59;50373.41;;;-144.14;100.00
7075;BME280;3578;51.568;6.932;2023-05-03T04:06:26;50373.41;;;-144.14;100.00
7075;BME280;3578;51.568;6.932;2023-05-03T04:08:53;50393.44;;;-144.14;100.00
7075;BME280;3578;51.568;6.932;2023-05-03T04:11:20;50373.41;;;-144.14;100.00
7075;BME280;3578;51.568;6.932;2023-05-03T04:13:48;50401.44;;;-144.14;100.00
7075;BME280;3578;51.568;6.932;2023-05-03T04:16:16;50399.44;;;-144.14;100.00
7075;BME280;3578;51.568;6.932;2023-05-03T04:18:43;50347.38;;;-144.14;100.00
7075;BME280;3578;51.568;6.932;2023-05-03T04:21:10;50343.38;;;-144.14;100.00
7075;BME280;3578;51.568;6.932;2023-05-03T04:23:37;50269.28;;;-144.14;100.00
7075;BME280;3578;51.568;6.932;2023-05-03T04:26:05;50223.25;;;-144.14;100.00
7075;BME280;3578;51.568;6.932;2023-05-03T04:28:32;50115.13;;;-144.14;100.00
7075;BME280;3578;51.568;6.932;2023-05-03T04:30:59;50123.13;;;-144.14;100.00
7075;BME280;3578;51.568;6.932;2023-05-03T04:33:28;50157.16;;;-144.14;100.00
7075;BME280;3578;51.568;6.932;2023-05-03T04:35:56;50207.22;;;-144.14;100.00
7075;BME280;3578;51.568;6.932;2023-05-03T04:38:23;50225.25;;;-144.14;100.00
7075;BME280;3578;51.568;6.932;2023-05-03T04:40:49;50305.34;;;-144.14;100.00
7075;BME280;3578;51.568;6.932;2023-05-03T04:43:16;50293.31;;;-144.14;100.00
7075;BME280;3578;51.568;6.932;2023-05-03T04:45:43;50337.38;;;-144.14;100.00
7075;BME280;3578;51.568;6.932;2023-05-03T04:48:10;50309.34;;;-144.14;100.00
7075;BME280;3578;51.568;6.932;2023-05-03T04:50:39;50311.34;;;-144.14;100.00
7075;BME280;3578;51.568;6.932;2023-05-03T04:53:06;50273.31;;;-144.14;100.00
7075;BME280;3578;51.568;6.932;2023-05-03T04:55:33;50223.25;;;-144.14;100.00
7075;BME280;3578;51.568;6.932;2023-05-03T04:58:00;50139.16;;;-144.14;100.00
7075;BME280;3578;51.568;6.932;2023-05-03T05:00:27;50179.19;;;-144.14;100.00
7075;BME280;3578;51.568;6.932;2023-05-03T05:02:54;50153.16;;;-144.14;100.00
7075;BME280;3578;51.568;6.932;2023-05-03T05:05:21;50067.06;;;-144.14;100.00
7075;BME280;3578;51.568;6.932;2023-05-03T05:07:50;50037.03;;;-144.14;100.00
7075;BME280;3578;51.568;6.932;2023-05-03T05:10:17;50109.13;;;-144.14;100.00
7075;BME280;3578;51.568;6.932;2023-05-03T05:12:44;50145.16;;;-144.14;100.00
7075;BME280;3578;51.568;6.932;2023-05-03T05:15:11;50245.25;;;-144.14;100.00
7075;BME280;3578;51.568;6.932;2023-05-03T05:17:38;50369.41;;;-144.14;100.00
7075;BME280;3578;51.568;6.932;2023-05-03T05:20:06;50469.53;;;-144.14;100.00
7075;BME280;3578;51.568;6.932;2023-05-03T05:22:36;50515.59;;;-144.14;100.00
7075;BME280;3578;51.568;6.932;2023-05-03T05:25:07;50535.63;;;-144.14;100.00
7075;BME280;3578;51.568;6.932;2023-05-03T05:27:34;50591.69;;;-144.14;99.82
7075;BME280;3578;51.568;6.932;2023-05-03T05:30:01;50593.69;;;-144.14;99.57
7075;BME280;3578;51.568;6.932;2023-05-03T05:32:28;50659.78;;;-144.14;99.57
7075;BME280;3578;51.568;6.932;2023-05-03T05:34:56;50647.75;;;-144.14;99.65
7075;BME280;3578;51.568;6.932;2023-05-03T05:37:24;50675.78;;;-144.14;99.23
7075;BME280;3578;51.568;6.932;2023-05-03T05:39:52;50705.84;;;-144.14;99.34
7075;BME280;3578;51.568;6.932;2023-05-03T05:42:21;50683.81;;;-144.14;99.28
7075;BME280;3578;51.568;6.932;2023-05-03T05:44:48;50719.84;;;-144.14;98.82
7075;BME280;3578;51.568;6.932;2023-05-03T05:47:17;50753.88;;;-144.14;98.91
7075;BME280;3578;51.568;6.932;2023-05-03T05:49:44;50755.91;;;-144.14;98.67
7075;BME280;3578;51.568;6.932;2023-05-03T05:52:11;50834.00;;;-144.14;98.15
7075;BME280;3578;51.568;6.932;2023-05-03T05:54:38;50894.06;;;-144.14;97.92
7075;BME280;3578;51.568;6.932;2023-05-03T05:57:04;50918.09;;;-144.14;97.57
7075;BME280;3578;51.568;6.932;2023-05-03T05:59:33;51068.31;;;-144.14;95.63
7075;BME280;3578;51.568;6.932;2023-05-03T06:02:00;51272.59;;;-144.14;93.18
7075;BME280;3578;51.568;6.932;2023-05-03T06:04:27;51324.69;;;-144.14;92.81
7075;BME280;3578;51.568;6.932;2023-05-03T06:06:54;51368.75;;;-144.14;92.72
7075;BME280;3578;51.568;6.932;2023-05-03T06:09:21;51444.88;;;-144.14;91.41
7075;BME280;3578;51.568;6.932;2023-05-03T06:11:48;51510.97;;;-144.14;89.87
7075;BME280;3578;51.568;6.932;2023-05-03T06:14:15;51667.22;;;-144.14;86.89
7075;BME280;3578;51.568;6.932;2023-05-03T06:16:45;51691.25;;;-144.14;86.26
7075;BME280;3578;51.568;6.932;2023-05-03T06:19:12;51969.69;;;-144.14;81.58
7075;BME280;3578;51.568;6.932;2023-05-03T06:21:39;52089.91;;;-144.14;80.77
7075;BME280;3578;51.568;6.932;2023-05-03T06:24:06;52212.09;;;-144.14;77.67
7075;BME280;3578;51.568;6.932;2023-05-03T06:26:33;52256.19;;;-144.14;78.39
7075;BME280;3578;51.568;6.932;2023-05-03T06:29:02;52200.09;;;-144.14;81.78
7075;BME280;3578;51.568;6.932;2023-05-03T06:31:29;52254.19;;;-144.14;78.68
7075;BME280;3578;51.568;6.932;2023-05-03T06:33:57;52584.78;;;-144.14;68.67
7075;BME280;3578;51.568;6.932;2023-05-03T06:36:24;52789.16;;;-144.14;63.96
7075;BME280;3578;51.568;6.932;2023-05-03T06:38:52;52977.53;;;-144.14;59.20
7075;BME280;3578;51.568;6.932;2023-05-03T06:41:19;52973.53;;;-144.14;65.33
7075;BME280;3578;51.568;6.932;2023-05-03T06:43:46;53081.72;;;-144.14;55.05
7075;BME280;3578;51.568;6.932;2023-05-03T06:46:13;53155.88;;;-144.14;54.11
7075;BME280;3578;51.568;6.932;2023-05-03T06:48:40;53314.19;;;-144.14;49.70
7075;BME280;3578;51.568;6.932;2023-05-03T06:51:08;53843.34;;;-144.14;43.12
7075;BME280;3578;51.568;6.932;2023-05-03T06:53:35;53913.50;;;-144.14;44.46
7075;BME280;3578;51.568;6.932;2023-05-03T06:56:03;54047.78;;;-144.14;43.34
7075;BME280;3578;51.568;6.932;2023-05-03T06:58:30;54502.88;;;-144.14;39.23
7075;BME280;3578;51.568;6.932;2023-05-03T07:00:57;55128.44;;;-144.14;35.76
7075;BME280;3578;51.568;6.932;2023-05-03T07:03:24;55647.81;;;-144.14;33.10
7075;BME280;3578;51.568;6.932;2023-05-03T07:05:51;56056.97;;;-144.14;31.80
7075;BME280;3578;51.568;6.932;2023-05-03T07:08:20;55653.84;;;-144.14;32.16
7075;BME280;3578;51.568;6.932;2023-05-03T07:10:47;55579.63;;;-144.14;33.69
7075;BME280;3578;51.568;6.932;2023-05-03T07:13:14;55645.81;;;-144.14;32.11
7075;BME280;3578;51.568;6.932;2023-05-03T07:15:40;55413.19;;;-144.14;34.92
7075;BME280;3578;51.568;6.932;2023-05-03T07:18:08;55497.41;;;-144.14;32.92
7075;BME280;3578;51.568;6.932;2023-05-03T07:20:35;55699.97;;;-144.14;33.37
7075;BME280;3578;51.568;6.932;2023-05-03T07:23:03;55842.34;;;-144.14;31.24
7075;BME280;3578;51.568;6.932;2023-05-03T07:25:32;55988.78;;;-144.14;30.86
7075;BME280;3578;51.568;6.932;2023-05-03T07:27:59;55818.28;;;-144.14;30.82
7075;BME280;3578;51.568;6.932;2023-05-03T07:30:26;55707.97;;;-144.14;32.18
7075;BME280;3578;51.568;6.932;2023-05-03T07:32:54;55689.94;;;-144.14;31.42
7075;BME280;3578;51.568;6.932;2023-05-03T07:35:21;55748.09;;;-144.14;31.78
7075;BME280;3578;51.568;6.932;2023-05-03T07:37:48;55714.00;;;-144.14;31.22
7075;BME280;3578;51.568;6.932;2023-05-03T07:40:15;55451.28;;;-144.14;32.92
7075;BME280;3578;51.568;6.932;2023-05-03T07:42:43;55589.66;;;-144.14;33.00
7075;BME280;3578;51.568;6.932;2023-05-03T07:45:11;55788.19;;;-144.14;31.92
7075;BME280;3578;51.568;6.932;2023-05-03T07:47:38;55918.56;;;-144.14;30.87
7075;BME280;3578;51.568;6.932;2023-05-03T07:50:06;56109.13;;;-144.14;30.83
7075;BME280;3578;51.568;6.932;2023-05-03T07:52:35;56233.47;;;-144.14;31.43
7075;BME280;3578;51.568;6.932;2023-05-03T07:55:03;56117.13;;;-144.14;32.83
7075;BME280;3578;51.568;6.932;2023-05-03T07:57:31;55459.31;;;-144.14;33.40
7075;BME280;3578;51.568;6.932;2023-05-03T07:59:59;55485.38;;;-144.14;32.95
7075;BME280;3578;51.568;6.932;2023-05-03T08:02:26;55776.16;;;-144.14;32.19
7075;BME280;3578;51.568;6.932;2023-05-03T08:04:53;56199.38;;;-144.14;30.80
7075;BME280;3578;51.568;6.932;2023-05-03T08:07:20;55691.94;;;-144.14;31.79
7075;BME280;3578;51.568;6.932;2023-05-03T08:09:48;55754.09;;;-144.14;33.89
7075;BME280;3578;51.568;6.932;2023-05-03T08:12:18;55756.13;;;-144.14;32.06
7075;BME280;3578;51.568;6.932;2023-05-03T08:14:45;55555.56;;;-144.14;31.83
7075;BME280;3578;51.568;6.932;2023-05-03T08:17:13;55178.56;;;-144.14;34.39
7075;BME280;3578;51.568;6.932;2023-05-03T08:19:40;55387.09;;;-144.14;34.93
7075;BME280;3578;51.568;6.932;2023-05-03T08:22:08;55752.09;;;-144.14;32.11
7075;BME280;3578;51.568;6.932;2023-05-03T08:24:37;56109.13;;;-144.14;30.89
7075;BME280;3578;51.568;6.932;2023-05-03T08:27:04;55996.78;;;-144.14;30.72
7075;BME280;3578;51.568;6.932;2023-05-03T08:29:33;55605.69;;;-144.14;32.75
7075;BME280;3578;51.568;6.932;2023-05-03T08:32:03;55290.84;;;-144.14;33.87
7075;BME280;3578;51.568;6.932;2023-05-03T08:34:31;55016.13;;;-144.14;35.00
7075;BME280;3578;51.568;6.932;2023-05-03T08:36:58;54899.84;;;-144.14;36.27
7075;BME280;3578;51.568;6.932;2023-05-03T08:39:26;54863.75;;;-144.14;36.31
7075;BME280;3578;51.568;6.932;2023-05-03T08:41:53;54901.84;;;-144.14;37.16
7075;BME280;3578;51.568;6.932;2023-05-03T08:44:22;55062.25;;;-144.14;35.57
7075;BME280;3578;51.568;6.932;2023-05-03T08:46:53;55387.09;;;-144.14;34.19
7075;BME280;3578;51.568;6.932;2023-05-03T08:49:20;55657.84;;;-144.14;32.61
7075;BME280;3578;51.568;6.932;2023-05-03T08:51:48;55938.63;;;-144.14;31.44
7075;BME280;3578;51.568;6.932;2023-05-03T08:54:16;56095.06;;;-144.14;30.31
7075;BME280;3578;51.568;6.932;2023-05-03T08:56:45;56273.59;;;-144.14;29.78
7075;BME280;3578;51.568;6.932;2023-05-03T08:59:13;56093.06;;;-144.14;30.03
7075;BME280;3578;51.568;6.932;2023-05-03T09:01:42;56044.94;;;-144.14;31.05
7075;BME280;3578;51.568;6.932;2023-05-03T09:04:10;55928.59;;;-144.14;30.26
7075;BME280;3578;51.568;6.932;2023-05-03T09:06:38;55322.94;;;-144.14;32.72
7075;BME280;3578;51.568;6.932;2023-05-03T09:09:06;55008.13;;;-144.14;34.44
7075;BME280;3578;51.568;6.932;2023-05-03T09:11:36;54972.03;;;-144.14;35.83
7075;BME280;3578;51.568;6.932;2023-05-03T09:14:11;54859.75;;;-144.14;36.11
7075;BME280;3578;51.568;6.932;2023-05-03T09:16:40;54805.59;;;-144.14;36.01
7075;BME280;3578;51.568;6.932;2023-05-03T09:19:10;54717.38;;;-144.14;36.82
7075;BME280;3578;51.568;6.932;2023-05-03T09:21:38;54749.47;;;-144.14;37.72
7075;BME280;3578;51.568;6.932;2023-05-03T09:24:14;54725.41;;;-144.14;37.35
7075;BME280;3578;51.568;6.932;2023-05-03T09:26:42;54729.41;;;-144.14;38.89
7075;BME280;3578;51.568;6.932;2023-05-03T09:29:25;54721.41;;;-144.14;38.00
7075;BME280;3578;51.568;6.932;2023-05-03T09:31:58;54669.25;;;-144.14;37.35
7075;BME280;3578;51.568;6.932;2023-05-03T09:34:25;54687.31;;;-144.14;38.04
7075;BME280;3578;51.568;6.932;2023-05-03T09:36:52;54673.28;;;-144.14;38.83
7075;BME280;3578;51.568;6.932;2023-05-03T09:39:21;54665.25;;;-144.14;37.34
7075;BME280;3578;51.568;6.932;2023-05-03T09:41:48;54701.34;;;-144.14;38.19
7075;BME280;3578;51.568;6.932;2023-05-03T09:44:16;54707.34;;;-144.14;38.52
7075;BME280;3578;51.568;6.932;2023-05-03T09:47:02;54677.28;;;-144.14;37.59
7075;BME280;3578;51.568;6.932;2023-05-03T09:49:30;54691.31;;;-144.14;37.62
7075;BME280;3578;51.568;6.932;2023-05-03T09:51:58;54711.38;;;-144.14;38.30
7075;BME280;3578;51.568;6.932;2023-05-03T09:54:27;54697.34;;;-144.14;38.82
7075;BME280;3578;51.568;6.932;2023-05-03T09:56:56;54737.44;;;-144.14;39.53
7075;BME280;3578;51.568;6.932;2023-05-03T09:59:24;54757.47;;;-144.14;40.08
7075;BME280;3578;51.568;6.932;2023-05-03T10:01:55;54753.47;;;-144.14;38.06
7075;BME280;3578;51.568;6.932;2023-05-03T10:04:25;54769.50;;;-144.14;39.29
7075;BME280;3578;51.568;6.932;2023-05-03T10:06:58;54745.47;;;-144.14;37.32
7075;BME280;3578;51.568;6.932;2023-05-03T10:09:32;54725.41;;;-144.14;38.24
7075;BME280;3578;51.568;6.932;2023-05-03T10:12:07;54733.44;;;-144.14;38.42
7075;BME280;3578;51.568;6.932;2023-05-03T10:14:34;54667.25;;;-144.14;38.67
7075;BME280;3578;51.568;6.932;2023-05-03T10:17:04;54673.28;;;-144.14;38.26
7075;BME280;3578;51.568;6.932;2023-05-03T10:19:38;54639.19;;;-144.14;37.44
7075;BME280;3578;51.568;6.932;2023-05-03T10:22:08;54615.13;;;-144.14;37.52
7075;BME280;3578;51.568;6.932;2023-05-03T10:25:05;54605.09;;;-144.14;37.30
7075;BME280;3578;51.568;6.932;2023-05-03T10:27:40;54709.38;;;-144.14;37.32
7075;BME280;3578;51.568;6.932;2023-05-03T10:30:13;54709.38;;;-144.14;38.62
7075;BME280;3578;51.568;6.932;2023-05-03T10:32:53;54723.41;;;-144.14;39.76
7075;BME280;3578;51.568;6.932;2023-05-03T10:35:20;54729.41;;;-144.14;38.29
7075;BME280;3578;51.568;6.932;2023-05-03T10:37:51;54749.47;;;-144.14;38.80
7075;BME280;3578;51.568;6.932;2023-05-03T10:40:20;54789.56;;;-144.14;38.03
7075;BME280;3578;51.568;6.932;2023-05-03T10:42:50;54777.53;;;-144.14;38.37
7075;BME280;3578;51.568;6.932;2023-05-03T10:45:23;54771.53;;;-144.14;37.10
7075;BME280;3578;51.568;6.932;2023-05-03T10:48:16;54739.44;;;-144.14;39.79
7075;BME280;3578;51.568;6.932;2023-05-03T10:50:45;54773.53;;;-144.14;38.01
7075;BME280;3578;51.568;6.932;2023-05-03T10:53:36;54779.53;;;-144.14;37.48
7075;BME280;3578;51.568;6.932;2023-05-03T10:56:06;54767.50;;;-144.14;36.32
7075;BME280;3578;51.568;6.932;2023-05-03T10:58:36;54793.56;;;-144.14;37.16
7075;BME280;3578;51.568;6.932;2023-05-03T11:01:04;54731.41;;;-144.14;37.04
7075;BME280;3578;51.568;6.932;2023-05-03T11:03:54;54785.56;;;-144.14;38.68
7075;BME280;3578;51.568;6.932;2023-05-03T11:06:30;54849.72;;;-144.14;36.99
7075;BME280;3578;51.568;6.932;2023-05-03T11:08:58;54753.47;;;-144.14;36.55
7075;BME280;3578;51.568;6.932;2023-05-03T11:11:27;54753.47;;;-144.14;37.50
7075;BME280;3578;51.568;6.932;2023-05-03T11:13:53;54771.53;;;-144.14;37.12
7075;BME280;3578;51.568;6.932;2023-05-03T11:16:21;54765.50;;;-144.14;38.48
7075;BME280;3578;51.568;6.932;2023-05-03T11:18:48;54805.59;;;-144.14;38.04
7075;BME280;3578;51.568;6.932;2023-05-03T11:21:15;54775.53;;;-144.14;39.47
7075;BME280;3578;51.568;6.932;2023-05-03T11:23:43;54841.69;;;-144.14;39.06
7075;BME280;3578;51.568;6.932;2023-05-03T11:26:11;54823.66;;;-144.14;38.02
7075;BME280;3578;51.568;6.932;2023-05-03T11:28:40;54829.66;;;-144.14;37.85
7075;BME280;3578;51.568;6.932;2023-05-03T11:31:08;54769.50;;;-144.14;37.91
7075;BME280;3578;51.568;6.932;2023-05-03T11:33:37;54773.53;;;-144.14;38.86
7075;BME280;3578;51.568;6.932;2023-05-03T11:36:06;54827.66;;;-144.14;38.62
7075;BME280;3578;51.568;6.932;2023-05-03T11:38:37;54829.66;;;-144.14;38.57
7075;BME280;3578;51.568;6.932;2023-05-03T11:41:11;54851.72;;;-144.14;36.72
7075;BME280;3578;51.568;6.932;2023-05-03T11:43:42;54831.66;;;-144.14;36.85
7075;BME280;3578;51.568;6.932;2023-05-03T11:46:10;54871.78;;;-144.14;37.39
7075;BME280;3578;51.568;6.932;2023-05-03T11:48:39;54865.75;;;-144.14;37.25
7075;BME280;3578;51.568;6.932;2023-05-03T11:51:07;54877.78;;;-144.14;38.21
7075;BME280;3578;51.568;6.932;2023-05-03T11:53:36;54879.78;;;-144.14;36.80
7075;BME280;3578;51.568;6.932;2023-05-03T11:56:07;54807.59;;;-144.14;36.73
7075;BME280;3578;51.568;6.932;2023-05-03T11:58:35;54845.72;;;-144.14;37.39
7075;BME280;3578;51.568;6.932;2023-05-03T12:01:16;54877.78;;;-144.14;37.20
7075;BME280;3578;51.568;6.932;2023-05-03T12:03:43;54845.72;;;-144.14;37.52
7075;BME280;3578;51.568;6.932;2023-05-03T12:06:13;54869.78;;;-144.14;37.57
7075;BME280;3578;51.568;6.932;2023-05-03T12:08:41;54865.75;;;-144.14;35.51
7075;BME280;3578;51.568;6.932;2023-05-03T12:11:08;54809.63;;;-144.14;35.73
7075;BME280;3578;51.568;6.932;2023-05-03T12:13:38;54821.66;;;-144.14;36.11
7075;BME280;3578;51.568;6.932;2023-05-03T12:16:07;54899.84;;;-144.14;37.42
7075;BME280;3578;51.568;6.932;2023-05-03T12:18:50;54901.84;;;-144.14;37.34
7075;BME280;3578;51.568;6.932;2023-05-03T12:21:18;54911.88;;;-144.14;36.98
7075;BME280;3578;51.568;6.932;2023-05-03T12:23:45;54939.94;;;-144.14;34.91
7075;BME280;3578;51.568;6.932;2023-05-03T12:26:15;54937.94;;;-144.14;34.99
7075;BME280;3578;51.568;6.932;2023-05-03T12:28:43;54921.91;;;-144.14;35.43
7075;BME280;3578;51.568;6.932;2023-05-03T12:31:10;54949.97;;;-144.14;35.99
7075;BME280;3578;51.568;6.932;2023-05-03T12:33:37;54958.00;;;-144.14;35.37
7075;BME280;3578;51.568;6.932;2023-05-03T12:36:06;54980.03;;;-144.14;35.99
7075;BME280;3578;51.568;6.932;2023-05-03T12:38:34;54974.03;;;-144.14;34.86
7075;BME280;3578;51.568;6.932;2023-05-03T12:41:01;55004.09;;;-144.14;35.16
7075;BME280;3578;51.568;6.932;2023-05-03T12:43:28;54978.03;;;-144.14;35.38
7075;BME280;3578;51.568;6.932;2023-05-03T12:45:55;55030.19;;;-144.14;34.19
7075;BME280;3578;51.568;6.932;2023-05-03T12:48:24;54972.03;;;-144.14;35.68
7075;BME280;3578;51.568;6.932;2023-05-03T12:50:51;55010.13;;;-144.14;34.61
7075;BME280;3578;51.568;6.932;2023-05-03T12:53:20;54994.09;;;-144.14;35.09
7075;BME280;3578;51.568;6.932;2023-05-03T12:55:47;55006.13;;;-144.14;34.21
7075;BME280;3578;51.568;6.932;2023-05-03T12:58:14;54986.06;;;-144.14;35.20
7075;BME280;3578;51.568;6.932;2023-05-03T13:00:43;55022.16;;;-144.14;35.38
7075;BME280;3578;51.568;6.932;2023-05-03T13:03:12;55036.19;;;-144.14;35.53
7075;BME280;3578;51.568;6.932;2023-05-03T13:05:39;55068.28;;;-144.14;35.02